createdAt,value
2023-05-14T00:03:31.393Z,50.9
2023-05-14T00:09:36.937Z,50.9
2023-05-14T00:15:43.181Z,50.9
2023-05-14T00:21:48.557Z,50.9
2023-05-14T00:27:53.507Z,51
2023-05-14T00:33:59.440Z,51
2023-05-14T00:40:05.003Z,51
2023-05-14T00:46:10.650Z,51
2023-05-14T00:52:16.013Z,51.1
2023-05-14T00:58:21.176Z,51.1
2023-05-14T01:04:26.673Z,51.1
2023-05-14T01:10:32.856Z,51.1
2023-05-14T01:16:38.559Z,51.2
2023-05-14T01:22:44.448Z,51.2
2023-05-14T01:28:50.321Z,51.2
2023-05-14T01:34:55.613Z,51.2
2023-05-14T01:41:01.147Z,51.3
2023-05-14T01:47:07.117Z,51.3
2023-05-14T01:53:12.682Z,51.3
2023-05-14T01:59:18.663Z,51.4
2023-05-14T02:05:24.071Z,51.4
2023-05-14T02:11:29.248Z,51.4
2023-05-14T02:17:34.377Z,51.4
2023-05-14T02:23:44.908Z,51.5
2023-05-14T02:29:50.083Z,51.5
2023-05-14T02:35:55.183Z,51.5
2023-05-14T02:42:01.385Z,51.5
2023-05-14T02:48:07.417Z,51.5
2023-05-14T02:54:12.350Z,51.6
2023-05-14T03:00:18.928Z,51.6
2023-05-14T03:06:25.161Z,51.6
2023-05-14T03:12:30.340Z,51.6
2023-05-14T03:18:36.587Z,51.6
2023-05-14T03:24:42.217Z,51.6
2023-05-14T03:30:47.822Z,51.6
2023-05-14T03:36:53.371Z,51.7
2023-05-14T03:42:58.346Z,51.7
2023-05-14T03:49:04.231Z,51.7
2023-05-14T03:55:09.757Z,51.7
2023-05-14T04:01:15.294Z,51.7
2023-05-14T04:07:21.330Z,51.7
2023-05-14T04:13:26.665Z,51.7
2023-05-14T04:19:32.442Z,51.7
2023-05-14T04:25:38.162Z,51.7
2023-05-14T04:31:43.408Z,51.7
2023-05-14T04:37:48.963Z,51.7
2023-05-14T04:43:54.080Z,51.7
2023-05-14T04:49:59.887Z,51.7
2023-05-14T04:56:05.608Z,51.7
2023-05-14T05:02:11.397Z,51.7
2023-05-14T05:08:17.387Z,51.7
2023-05-14T05:14:23.347Z,51.7
2023-05-14T05:20:28.962Z,51.6
2023-05-14T05:26:35.346Z,51.6
2023-05-14T05:32:41.130Z,51.5
2023-05-14T05:38:47.275Z,51.4
2023-05-14T05:44:53.284Z,51.3
2023-05-14T05:50:58.460Z,51.1
2023-05-14T05:57:03.636Z,51
2023-05-14T06:03:09.576Z,50.9
2023-05-14T06:09:15.342Z,50.8
2023-05-14T06:15:20.982Z,50.7
2023-05-14T06:21:26.720Z,50.7
2023-05-14T06:27:32.288Z,50.7
2023-05-14T06:33:38.066Z,50.7
2023-05-14T06:39:43.418Z,50.6
2023-05-14T06:45:48.997Z,50.5
2023-05-14T06:51:54.415Z,50.6
2023-05-14T06:58:00.139Z,50.6
2023-05-14T07:04:05.590Z,50.5
2023-05-14T07:10:11.098Z,50.5
2023-05-14T07:16:16.660Z,50.4
2023-05-14T07:22:22.084Z,50.4
2023-05-14T07:28:27.006Z,50.4
2023-05-14T07:34:33.010Z,50.4
2023-05-14T07:40:38.541Z,50.3
2023-05-14T07:46:44.128Z,50.2
2023-05-14T07:52:49.986Z,50.5
2023-05-14T07:58:55.317Z,50.4
2023-05-14T08:05:00.684Z,50.5
2023-05-14T08:11:06.667Z,50.5
2023-05-14T08:17:12.285Z,50.6
2023-05-14T08:23:18.176Z,50.6
2023-05-14T08:29:23.998Z,50.6
2023-05-14T08:35:29.728Z,50.5
2023-05-14T08:41:35.307Z,50.6
2023-05-14T08:47:40.925Z,50.6
2023-05-14T08:53:46.239Z,50.7
2023-05-14T08:59:51.792Z,50.6
2023-05-14T09:05:59.951Z,50.6
2023-05-14T09:12:05.411Z,50.5
2023-05-14T09:18:11.055Z,50.6
2023-05-14T09:24:17.592Z,50.6
2023-05-14T09:30:23.409Z,50.7
2023-05-14T09:36:29.745Z,50.7
2023-05-14T09:42:35.948Z,50.7
2023-05-14T09:48:41.178Z,50.6
2023-05-14T09:54:47.073Z,50.5
2023-05-14T10:00:53.139Z,50.5
2023-05-14T10:06:57.875Z,50.5
2023-05-14T10:13:03.392Z,50.6
2023-05-14T10:19:09.224Z,50.6
2023-05-14T10:25:14.949Z,50.7
2023-05-14T10:31:19.804Z,50.7
2023-05-14T10:37:24.913Z,50.7
2023-05-14T10:43:30.237Z,50.7
2023-05-14T10:49:46.868Z,50.6
2023-05-14T10:55:52.350Z,50.4
2023-05-14T11:01:57.837Z,50.5
2023-05-14T11:08:03.373Z,50.5
2023-05-14T11:14:11.410Z,50.5
2023-05-14T11:20:16.803Z,50.3
2023-05-14T11:26:24.862Z,50.4
2023-05-14T11:32:30.813Z,50.3
2023-05-14T11:38:36.402Z,50.2
2023-05-14T11:44:41.720Z,49.5
2023-05-14T11:50:47.700Z,49.3
2023-05-14T11:56:53.305Z,49.3
2023-05-14T12:02:58.653Z,49.3
2023-05-14T12:09:04.686Z,49.2
2023-05-14T12:15:09.995Z,49.4
2023-05-14T12:21:15.385Z,49.2
2023-05-14T12:27:21.368Z,49.5
2023-05-14T12:33:27.169Z,49.4
2023-05-14T12:39:32.986Z,49.3
2023-05-14T12:45:38.691Z,49.3
2023-05-14T12:51:44.866Z,49.3
2023-05-14T12:57:50.309Z,49.5
2023-05-14T13:03:55.896Z,49.5
2023-05-14T13:10:01.803Z,49.4
2023-05-14T13:16:06.952Z,49.2
2023-05-14T13:22:13.000Z,49.3
2023-05-14T13:28:18.524Z,49.5
2023-05-14T13:34:24.153Z,49.5
2023-05-14T13:40:30.476Z,49.5
2023-05-14T13:46:35.927Z,49.6
2023-05-14T13:52:41.705Z,49.5
2023-05-14T13:58:47.427Z,49.5
2023-05-14T14:04:53.065Z,49.7
2023-05-14T14:10:58.396Z,49.5
2023-05-14T14:17:03.734Z,49.7
2023-05-14T14:23:09.521Z,49.7
2023-05-14T14:29:14.902Z,49.5
2023-05-14T14:35:20.851Z,49.5
2023-05-14T14:41:25.607Z,49.6
2023-05-14T14:47:31.193Z,49.6
2023-05-14T14:53:37.214Z,49.6
2023-05-14T14:59:43.134Z,49.7
2023-05-14T15:05:48.297Z,49.8
2023-05-14T15:11:53.716Z,49.8
2023-05-14T15:17:59.079Z,49.8
2023-05-14T15:24:04.803Z,50
2023-05-14T15:30:10.400Z,49.9
2023-05-14T15:36:16.022Z,49.9
2023-05-14T15:42:21.589Z,50
2023-05-14T15:48:27.149Z,50.1
2023-05-14T15:54:32.723Z,50.1
2023-05-14T16:00:38.244Z,50
2023-05-14T16:06:44.226Z,50
2023-05-14T16:12:49.917Z,50.2
2023-05-14T16:18:55.182Z,50.2
2023-05-14T16:25:02.629Z,50.1
2023-05-14T16:31:08.960Z,50.4
2023-05-14T16:37:16.183Z,50.4
2023-05-14T16:43:22.159Z,50.4
2023-05-14T16:49:27.743Z,50.4
2023-05-14T16:55:34.535Z,50.4
2023-05-14T17:01:40.179Z,50.3
2023-05-14T17:07:45.531Z,50.1
2023-05-14T17:13:51.460Z,50.1
2023-05-14T17:19:57.436Z,50
2023-05-14T17:26:03.063Z,50
2023-05-14T17:32:08.792Z,49.9
2023-05-14T17:38:14.417Z,49.9
2023-05-14T17:44:20.169Z,49.9
2023-05-14T17:50:25.735Z,49.9
2023-05-14T17:56:31.341Z,49.8
2023-05-14T18:02:36.895Z,49.8
2023-05-14T18:08:42.035Z,49.8
2023-05-14T18:14:49.040Z,49.7
2023-05-14T18:20:54.236Z,49.7
2023-05-14T18:26:59.830Z,49.7
2023-05-14T18:33:05.634Z,49.6
2023-05-14T18:39:11.179Z,49.6
2023-05-14T18:45:16.362Z,49.7
2023-05-14T18:51:21.488Z,49.7
2023-05-14T18:57:27.064Z,49.8
2023-05-14T19:03:32.711Z,49.7
2023-05-14T19:09:38.375Z,49.8
2023-05-14T19:15:43.962Z,49.8
2023-05-14T19:21:49.534Z,49.9
2023-05-14T19:27:55.509Z,49.9
2023-05-14T19:34:00.934Z,49.9
2023-05-14T19:40:06.507Z,49.9
2023-05-14T19:46:12.236Z,49.9
2023-05-14T19:52:17.597Z,49.9
2023-05-14T19:58:23.214Z,50
2023-05-14T20:04:28.607Z,50
2023-05-14T20:10:33.891Z,50
2023-05-14T20:16:38.936Z,50.1
2023-05-14T20:22:45.059Z,50.1
2023-05-14T20:28:50.456Z,50.1
2023-05-14T20:34:56.091Z,50.2
2023-05-14T20:41:01.776Z,50.2
2023-05-14T20:47:07.554Z,50.2
2023-05-14T20:53:12.997Z,50.4
2023-05-14T20:59:18.293Z,50.3
2023-05-14T21:05:23.671Z,50.3
2023-05-14T21:11:29.471Z,50.3
2023-05-14T21:17:35.265Z,50.3
2023-05-14T21:23:40.798Z,50.4
2023-05-14T21:29:46.915Z,50.5
2023-05-14T21:35:52.565Z,50.4
2023-05-14T21:41:57.900Z,50.4
2023-05-14T21:48:03.804Z,50.4
2023-05-14T21:54:09.497Z,50.4
2023-05-14T22:00:14.744Z,50.4
2023-05-14T22:06:20.049Z,50.5
2023-05-14T22:12:25.595Z,50.6
2023-05-14T22:18:31.371Z,50.6
2023-05-14T22:24:36.774Z,50.7
2023-05-14T22:30:42.312Z,50.7
2023-05-14T22:36:47.685Z,50.7
2023-05-14T22:42:52.864Z,50.7
2023-05-14T22:48:59.255Z,50.8
2023-05-14T22:55:05.058Z,50.8
2023-05-14T23:01:10.594Z,50.8
2023-05-14T23:07:16.383Z,50.9
2023-05-14T23:13:22.182Z,50.8
2023-05-14T23:19:27.997Z,50.9
2023-05-14T23:25:33.868Z,50.9
2023-05-14T23:31:39.751Z,50.9
2023-05-14T23:37:45.638Z,51
2023-05-14T23:43:51.621Z,51
2023-05-14T23:49:57.672Z,51
2023-05-14T23:56:03.810Z,51
